• Join FlightAware (Why Join?)
  • Login
  • US Flag 
02:56AM EDT


 

Airport Tracker/Info


-or-


 

Live Flight TrackerFlight Track Log ✈ AFR3997 ✈ 31-Aug-2013 ✈ TFFF / FDF - TFFR / PTP

Flight Track Log - Related Links

Times and Time Zones

All times are in EDT time to prevent confusion due to time zone crossing. See the AFR3997 flight status page for this flight to view local times or setup timezone preferences in your user account.

Time Position Orientation Groundspeed Altitude Reporting Facility
EDT Latitude Longitude Course Direction KTS MPH feet Rate Location/Type
09:33PM 14.8270 -61.0050 340° North 322 371 10,800  Level FlightAware
09:34PM 14.8680 -61.0200 341° North 341 392 11,800 2,400 Climbing FlightAware
09:35PM 14.9310 -61.0450 339° North 349 402 13,600 1,740 Climbing FlightAware
09:35PM 14.9740 -61.0770 324° Northwest 355 409 14,000 300 Climbing FlightAware
09:36PM 15.0170 -61.1100 323° Northwest 353 406 14,000  Level FlightAware
09:36PM 15.0750 -61.1410 333° Northwest 350 403 14,000  Level FlightAware
09:37PM 15.1220 -61.1560 343° North 350 403 14,000  Level FlightAware
09:37PM 15.1820 -61.1760 342° North 349 402 14,000  Level FlightAware
09:38PM 15.2300 -61.1920 342° North 350 403 14,000  Level FlightAware
09:39PM 15.3000 -61.2130 344° North 349 402 14,000  Level FlightAware
09:39PM 15.3610 -61.2230 351° North 348 400 14,000  Level FlightAware
09:40PM 15.4120 -61.2320 350° North 347 399 14,000  Level FlightAware
09:40PM 15.4610 -61.2400 351° North 342 394 14,000  Level FlightAware
09:41PM 15.5240 -61.2490 352° North 311 358 14,000  Level FlightAware
09:42PM 15.5670 -61.2550 352° North 307 353 14,000  Level FlightAware
09:42PM 15.6100 -61.2610 352° North 306 352 14,000  Level FlightAware
09:43PM 15.6650 -61.2680 353° North 302 348 14,000 -1,020 Level FlightAware
09:43PM 15.7140 -61.2730 354° North 305 351 12,900 -1,620 Descending FlightAware
09:44PM 15.7690 -61.2800 353° North 306 352 12,100 -1,080 Descending FlightAware
09:45PM 15.8250 -61.2880 352° North 303 349 11,500 -1,020 Descending FlightAware
09:45PM 15.8780 -61.2970 351° North 297 342 10,800 -1,500 Descending FlightAware
09:46PM 15.9160 -61.3040 350° North 298 343 9,900 -1,800 Descending FlightAware
09:46PM 15.9480 -61.3100 350° North 301 346 9,200 -1,860 Descending FlightAware
09:47PM 15.9740 -61.3170 345° North 306 352 8,600 -1,500 Descending FlightAware
09:47PM 16.0160 -61.3320 341° North 292 336 8,000 -1,380 Descending FlightAware
09:47PM 16.0400 -61.3420 338° Northwest 291 335 7,500 -1,560 Descending FlightAware
09:48PM 16.0690 -61.3600 329° Northwest 289 333 6,900 -1,560 Descending FlightAware
09:48PM 16.0880 -61.3710 331° Northwest 287 330 6,400 -1,680 Descending FlightAware
09:49PM 16.1220 -61.3900 332° Northwest 279 321 5,600 -1,920 Descending FlightAware
09:49PM 16.1450 -61.4040 330° Northwest 279 321 4,800 -2,400 Descending FlightAware
09:49PM 16.1580 -61.4130 326° Northwest 278 320 4,300 -1,860 Descending FlightAware
09:50PM 16.1860 -61.4330 326° Northwest 278 320 3,600 -840 Descending FlightAware
09:50PM 16.2140 -61.4520 327° Northwest 277 319 3,600  Level FlightAware
09:50PM 16.2290 -61.4630 325° Northwest 275 316 3,600  Level FlightAware
09:51PM 16.2580 -61.4830 326° Northwest 276 318 3,600  Level FlightAware
09:51PM 16.2830 -61.5000 327° Northwest 276 318 3,600  Level FlightAware
09:51PM 16.3020 -61.5130 327° Northwest 277 319 3,600  Level FlightAware
09:52PM 16.3290 -61.5320 326° Northwest 274 315 3,600  Level FlightAware
09:52PM 16.3610 -61.5550 325° Northwest 273 314 3,600  Level FlightAware
09:53PM 16.3830 -61.5710 325° Northwest 276 318 3,600  Level FlightAware
09:53PM 16.4050 -61.5870 325° Northwest 276 318 3,600  Level FlightAware
09:54PM 16.4100 -61.6280 277° West 292 336 3,600  Level FlightAware
09:54PM 16.4110 -61.6590 272° West 292 336 3,600  Level FlightAware
09:54PM 16.4030 -61.6920 256° West 291 335 3,600  Level FlightAware
09:54PM 16.3990 -61.7090 256° West 295 339 3,600  Level FlightAware
09:55PM 16.3890 -61.7380 250° West 295 339 3,600  Level FlightAware
09:58PM 16.3186 -61.6205 122° Southeast  Level Estimated
09:59PM 16.2913 -61.5751 122° Southeast  Level Estimated
10:00PM 16.2653 -61.5318 122° Southeast  Level Estimated
10:01PM 16.2653 -61.5318 136° Southeast  Level Estimated
10:02PM 16.2653 -61.5318 136° Southeast  Level Estimated
10:03PM 16.2653 -61.5318 136° Southeast  Level Estimated
10:04PM 16.2653 -61.5318 136° Southeast  Level Estimated
10:05PM 16.2653 -61.5318 136° Southeast  Level Estimated
10:06PM 16.2653 -61.5318 136° Southeast  Level Estimated
10:07PM 16.2653 -61.5318 136° Southeast  Level Estimated
10:08PM 16.2653 -61.5318 136° Southeast  Level Estimated
10:09PM 16.2653 -61.5318 136° Southeast  Level Estimated